createdAt,value
2019-03-20T00:01:04.289Z,6.50
2019-03-20T00:03:37.818Z,5.80
2019-03-20T00:06:11.359Z,7.90
2019-03-20T00:08:44.698Z,7.63
2019-03-20T00:11:18.180Z,9.83
2019-03-20T00:13:51.640Z,9.67
2019-03-20T00:16:25.156Z,9.97
2019-03-20T00:18:58.516Z,10.43
2019-03-20T00:21:31.998Z,10.63
2019-03-20T00:24:05.408Z,8.87
2019-03-20T00:26:38.844Z,10.70
2019-03-20T00:29:12.264Z,8.70
2019-03-20T00:31:45.688Z,7.00
2019-03-20T00:34:19.133Z,6.90
2019-03-20T00:36:52.456Z,6.80
2019-03-20T00:39:25.954Z,8.93
2019-03-20T00:41:59.354Z,10.63
2019-03-20T00:44:32.834Z,11.53
2019-03-20T00:47:06.275Z,8.90
2019-03-20T00:49:39.698Z,8.63
2019-03-20T00:52:13.117Z,7.60
2019-03-20T00:54:46.574Z,9.37
2019-03-20T00:57:19.974Z,7.43
2019-03-20T00:59:53.340Z,9.83
2019-03-20T01:02:26.687Z,9.77
2019-03-20T01:05:00.175Z,9.70
2019-03-20T01:07:33.702Z,10.90
2019-03-20T01:10:10.450Z,13.23
2019-03-20T01:12:43.960Z,12.37
2019-03-20T01:15:17.467Z,9.27
2019-03-20T01:17:50.927Z,12.30
2019-03-20T01:20:24.747Z,10.03
2019-03-20T01:22:58.150Z,11.77
2019-03-20T01:25:31.739Z,12.03
2019-03-20T01:28:05.181Z,13.00
2019-03-20T01:30:40.296Z,9.17
2019-03-20T01:33:14.270Z,9.37
2019-03-20T01:35:47.707Z,9.83
2019-03-20T01:38:21.128Z,13.77
2019-03-20T01:40:54.582Z,13.47
2019-03-20T01:43:28.021Z,8.93
2019-03-20T01:46:01.440Z,9.73
2019-03-20T01:48:34.794Z,10.97
2019-03-20T01:51:20.408Z,12.33
2019-03-20T01:53:53.760Z,9.23
2019-03-20T01:56:27.111Z,11.30
2019-03-20T01:59:00.473Z,13.47
2019-03-20T02:01:33.964Z,10.40
2019-03-20T02:04:07.421Z,9.80
2019-03-20T02:06:40.790Z,9.73
2019-03-20T02:09:14.141Z,13.23
2019-03-20T02:11:47.601Z,14.07
2019-03-20T02:14:21.010Z,12.10
2019-03-20T02:16:54.532Z,13.83
2019-03-20T02:19:27.913Z,9.67
2019-03-20T02:22:01.250Z,11.70
2019-03-20T02:24:34.615Z,8.77
2019-03-20T02:27:08.606Z,8.90
2019-03-20T02:29:42.072Z,9.20
2019-03-20T02:32:15.504Z,11.80
2019-03-20T02:34:48.861Z,14.43
2019-03-20T02:37:22.315Z,13.30
2019-03-20T02:39:55.656Z,12.27
2019-03-20T02:42:29.132Z,17.23
2019-03-20T02:45:02.515Z,9.90
2019-03-20T02:47:35.906Z,11.47
2019-03-20T02:50:10.650Z,19.80
2019-03-20T02:52:44.016Z,14.00
2019-03-20T02:55:17.484Z,13.40
2019-03-20T02:57:50.901Z,14.37
2019-03-20T03:00:24.433Z,12.10
2019-03-20T03:02:57.854Z,13.30
2019-03-20T03:05:31.344Z,11.43
2019-03-20T03:08:04.834Z,12.77
2019-03-20T03:10:38.263Z,9.87
2019-03-20T03:13:11.701Z,10.23
2019-03-20T03:15:45.151Z,13.87
2019-03-20T03:18:18.563Z,10.70
2019-03-20T03:20:51.955Z,15.77
2019-03-20T03:23:25.308Z,16.63
2019-03-20T03:25:58.732Z,7.93
2019-03-20T03:28:32.125Z,12.47
2019-03-20T03:31:05.623Z,9.60
2019-03-20T03:33:38.978Z,11.47
2019-03-20T03:36:21.115Z,11.83
2019-03-20T03:38:47.487Z,13.47
2019-03-20T03:41:20.936Z,10.47
2019-03-20T03:43:54.390Z,10.03
2019-03-20T03:46:28.291Z,11.70
2019-03-20T03:49:01.717Z,12.27
2019-03-20T03:51:35.219Z,13.30
2019-03-20T03:54:08.582Z,10.57
2019-03-20T03:56:42.037Z,10.67
2019-03-20T03:59:15.385Z,13.70
2019-03-20T04:01:48.734Z,10.20
2019-03-20T04:04:22.089Z,12.37
2019-03-20T04:06:55.564Z,9.77
2019-03-20T04:09:28.987Z,14.03
2019-03-20T04:12:02.437Z,10.30
2019-03-20T04:14:35.796Z,12.53
2019-03-20T04:17:24.354Z,14.63
2019-03-20T04:19:57.764Z,10.67
2019-03-20T04:22:31.235Z,11.07
2019-03-20T04:25:06.219Z,11.37
2019-03-20T04:27:39.601Z,10.03
2019-03-20T04:30:15.722Z,9.90
2019-03-20T04:32:49.257Z,9.37
2019-03-20T04:35:22.613Z,12.33
2019-03-20T04:37:56.062Z,8.97
2019-03-20T04:40:29.507Z,13.37
2019-03-20T04:43:03.256Z,11.10
2019-03-20T04:45:36.639Z,10.67
2019-03-20T04:48:10.005Z,15.67
2019-03-20T04:50:43.420Z,9.70
2019-03-20T04:53:16.866Z,10.60
2019-03-20T04:55:50.307Z,11.93
2019-03-20T04:58:23.701Z,12.43
2019-03-20T05:00:57.146Z,12.90
2019-03-20T05:03:30.647Z,11.10
2019-03-20T05:06:04.098Z,10.70
2019-03-20T05:08:37.591Z,11.83
2019-03-20T05:11:10.956Z,9.47
2019-03-20T05:13:44.378Z,11.03
2019-03-20T05:16:17.781Z,7.50
2019-03-20T05:18:51.260Z,11.50
2019-03-20T05:21:24.606Z,8.90
2019-03-20T05:23:57.975Z,12.10
2019-03-20T05:26:31.472Z,12.70
2019-03-20T05:29:04.903Z,9.70
2019-03-20T05:31:38.265Z,13.40
2019-03-20T05:34:11.760Z,11.07
2019-03-20T05:36:45.135Z,13.67
2019-03-20T05:39:18.476Z,7.83
2019-03-20T05:41:51.994Z,11.17
2019-03-20T05:44:25.330Z,9.90
2019-03-20T05:46:58.722Z,13.27
2019-03-20T05:49:32.073Z,13.47
2019-03-20T05:52:05.443Z,13.07
2019-03-20T05:54:38.777Z,11.80
2019-03-20T05:57:12.742Z,15.30
2019-03-20T05:59:46.070Z,15.67
2019-03-20T06:02:19.481Z,13.50
2019-03-20T06:04:52.886Z,13.60
2019-03-20T06:07:26.382Z,13.97
2019-03-20T06:09:59.730Z,17.63
2019-03-20T06:12:33.110Z,14.37
2019-03-20T06:15:07.524Z,12.13
2019-03-20T06:17:40.881Z,13.50
2019-03-20T06:20:14.868Z,12.97
2019-03-20T06:22:48.226Z,13.53
2019-03-20T06:25:21.788Z,17.83
2019-03-20T06:27:55.233Z,18.80
2019-03-20T06:30:28.584Z,14.80
2019-03-20T06:33:02.068Z,12.00
2019-03-20T06:35:35.473Z,14.77
2019-03-20T06:38:08.976Z,14.77
2019-03-20T06:40:42.402Z,12.07
2019-03-20T06:43:15.871Z,10.87
2019-03-20T06:45:49.270Z,10.50
2019-03-20T06:48:22.705Z,10.77
2019-03-20T06:50:56.067Z,8.90
2019-03-20T06:53:29.486Z,9.37
2019-03-20T06:56:02.916Z,10.37
2019-03-20T06:58:36.444Z,8.33
2019-03-20T07:01:22.190Z,5.53
2019-03-20T07:03:58.744Z,10.50
2019-03-20T07:06:50.283Z,8.17
2019-03-20T07:09:32.637Z,7.97
2019-03-20T07:12:05.961Z,9.77
2019-03-20T07:14:39.314Z,12.60
2019-03-20T07:17:12.660Z,14.90
2019-03-20T07:19:46.087Z,16.33
2019-03-20T07:22:19.437Z,12.50
2019-03-20T07:24:52.876Z,7.77
2019-03-20T07:27:26.302Z,12.40
2019-03-20T07:29:59.747Z,10.53
2019-03-20T07:32:33.159Z,14.17
2019-03-20T07:35:06.605Z,8.10
2019-03-20T07:37:39.962Z,11.27
2019-03-20T07:40:13.395Z,8.43
2019-03-20T07:42:46.743Z,11.97
2019-03-20T07:45:20.216Z,24.80
2019-03-20T07:47:53.559Z,12.27
2019-03-20T07:50:26.920Z,10.07
2019-03-20T07:53:00.270Z,11.30
2019-03-20T07:55:33.758Z,9.23
2019-03-20T07:58:07.253Z,9.40
2019-03-20T08:00:40.621Z,10.27
2019-03-20T08:03:13.957Z,10.10
2019-03-20T08:05:47.402Z,14.27
2019-03-20T08:08:20.759Z,12.03
2019-03-20T08:10:54.113Z,12.90
2019-03-20T08:13:27.542Z,12.47
2019-03-20T08:16:00.984Z,15.50
2019-03-20T08:18:34.451Z,10.00
2019-03-20T08:21:08.059Z,13.37
2019-03-20T08:23:41.522Z,12.57
2019-03-20T08:26:15.023Z,10.43
2019-03-20T08:28:48.381Z,13.57
2019-03-20T08:31:21.839Z,11.23
2019-03-20T08:33:55.173Z,13.13
2019-03-20T08:36:28.628Z,12.40
2019-03-20T08:39:02.059Z,12.80
2019-03-20T08:41:35.487Z,8.57
2019-03-20T08:44:08.886Z,10.33
2019-03-20T08:46:42.312Z,13.47
2019-03-20T08:49:15.728Z,14.73
2019-03-20T08:51:49.187Z,12.03
2019-03-20T08:54:22.618Z,9.03
2019-03-20T08:56:56.118Z,12.40
2019-03-20T08:59:29.535Z,10.33
2019-03-20T09:02:02.970Z,13.87
2019-03-20T09:04:36.386Z,14.90
2019-03-20T09:07:09.918Z,12.10
2019-03-20T09:09:43.254Z,13.17
2019-03-20T09:12:16.601Z,13.03
2019-03-20T09:14:50.053Z,12.43
2019-03-20T09:17:23.519Z,12.77
2019-03-20T09:19:56.871Z,11.40
2019-03-20T09:22:30.359Z,13.17
2019-03-20T09:25:05.324Z,14.50
2019-03-20T09:27:38.776Z,14.03
2019-03-20T09:30:15.406Z,11.47
2019-03-20T09:32:48.836Z,11.37
2019-03-20T09:35:22.281Z,12.87
2019-03-20T09:37:55.705Z,14.47
2019-03-20T09:40:29.743Z,14.60
2019-03-20T09:43:03.150Z,16.30
2019-03-20T09:45:36.601Z,15.30
2019-03-20T09:48:10.028Z,14.57
2019-03-20T09:50:43.390Z,18.13
2019-03-20T09:53:16.926Z,13.37
2019-03-20T09:55:50.320Z,11.63
2019-03-20T09:58:23.789Z,10.77
2019-03-20T10:00:57.277Z,13.43
2019-03-20T10:03:30.760Z,10.50
2019-03-20T10:06:04.188Z,15.97
2019-03-20T10:08:37.614Z,11.50
2019-03-20T10:11:10.964Z,8.87
2019-03-20T10:13:44.306Z,10.47
2019-03-20T10:16:17.752Z,9.17
2019-03-20T10:18:54.145Z,13.07
2019-03-20T10:21:27.613Z,11.60
2019-03-20T10:24:00.940Z,14.03
2019-03-20T10:26:34.402Z,13.93
2019-03-20T10:29:07.742Z,10.07
2019-03-20T10:31:41.220Z,10.17
2019-03-20T10:34:14.630Z,10.53
2019-03-20T10:36:48.089Z,8.47
2019-03-20T10:39:21.396Z,8.07
2019-03-20T10:41:54.895Z,6.10
2019-03-20T10:44:28.214Z,9.43
2019-03-20T10:47:01.926Z,6.93
2019-03-20T10:49:35.418Z,7.43
2019-03-20T10:52:08.786Z,6.93
2019-03-20T10:54:42.210Z,6.10
2019-03-20T10:57:15.620Z,8.00
2019-03-20T10:59:49.048Z,7.10
2019-03-20T11:02:22.510Z,9.93
2019-03-20T11:04:55.986Z,7.83
2019-03-20T11:07:29.433Z,7.70
2019-03-20T11:10:05.104Z,7.60
2019-03-20T11:12:38.483Z,5.57
2019-03-20T11:15:16.906Z,4.20
2019-03-20T11:17:50.235Z,10.47
2019-03-20T11:20:24.655Z,5.57
2019-03-20T11:22:58.108Z,5.87
2019-03-20T11:25:31.569Z,5.83
2019-03-20T11:28:05.021Z,9.43
2019-03-20T11:30:38.521Z,8.00
2019-03-20T11:33:11.978Z,6.17
2019-03-20T11:35:45.478Z,7.67
2019-03-20T11:38:18.932Z,7.97
2019-03-20T11:40:52.421Z,10.13
2019-03-20T11:43:25.957Z,9.23
2019-03-20T11:45:59.317Z,7.43
2019-03-20T11:48:33.471Z,6.57
2019-03-20T11:51:07.009Z,7.60
2019-03-20T11:53:40.430Z,9.67
2019-03-20T11:56:13.850Z,9.47
2019-03-20T11:58:47.234Z,14.13
2019-03-20T12:01:20.654Z,9.60
2019-03-20T12:03:54.023Z,10.80
2019-03-20T12:06:27.365Z,10.63
2019-03-20T12:09:00.798Z,8.30
2019-03-20T12:11:45.215Z,8.27
2019-03-20T12:14:11.211Z,9.80
2019-03-20T12:16:44.819Z,8.07
2019-03-20T12:19:18.287Z,9.73
2019-03-20T12:21:51.648Z,7.20
2019-03-20T12:24:25.189Z,11.13
2019-03-20T12:26:58.552Z,10.50
2019-03-20T12:29:31.915Z,8.50
2019-03-20T12:32:05.372Z,7.37
2019-03-20T12:34:39.087Z,9.07
2019-03-20T12:37:12.433Z,14.07
2019-03-20T12:39:53.025Z,9.77
2019-03-20T12:42:21.013Z,8.70
2019-03-20T12:44:55.381Z,7.27
2019-03-20T12:47:28.793Z,6.43
2019-03-20T12:50:02.166Z,5.50
2019-03-20T12:52:35.607Z,11.53
2019-03-20T12:55:15.042Z,9.00
2019-03-20T12:57:48.399Z,10.47
2019-03-20T13:00:27.668Z,9.67
2019-03-20T13:03:01.123Z,8.93
2019-03-20T13:05:34.495Z,10.70
2019-03-20T13:08:07.837Z,7.60
2019-03-20T13:10:41.409Z,7.13
2019-03-20T13:13:14.864Z,8.60
2019-03-20T13:15:48.323Z,9.43
2019-03-20T13:18:21.733Z,11.20
2019-03-20T13:20:55.177Z,12.87
2019-03-20T13:23:36.732Z,10.03
2019-03-20T13:26:10.124Z,8.30
2019-03-20T13:28:43.695Z,10.40
2019-03-20T13:31:20.284Z,10.67
2019-03-20T13:33:53.710Z,10.27
2019-03-20T13:36:27.153Z,9.90
2019-03-20T13:39:00.567Z,6.73
2019-03-20T13:41:34.127Z,11.30
2019-03-20T13:44:07.469Z,7.57
2019-03-20T13:46:40.845Z,8.83
2019-03-20T13:49:14.296Z,8.27
2019-03-20T13:51:47.771Z,8.93
2019-03-20T13:54:21.185Z,11.50
2019-03-20T13:56:54.696Z,9.30
2019-03-20T13:59:28.104Z,8.70
2019-03-20T14:02:01.536Z,8.37
2019-03-20T14:04:34.955Z,9.67
2019-03-20T14:07:08.336Z,9.23
2019-03-20T14:09:41.679Z,6.17
2019-03-20T14:12:15.139Z,8.87
2019-03-20T14:14:48.548Z,11.00
2019-03-20T14:17:21.986Z,5.87
2019-03-20T14:19:55.401Z,6.20
2019-03-20T14:22:31.620Z,7.67
2019-03-20T14:25:07.827Z,5.70
2019-03-20T14:27:41.306Z,10.60
2019-03-20T14:30:22.806Z,6.70
2019-03-20T14:32:56.325Z,6.30
2019-03-20T14:35:29.731Z,9.17
2019-03-20T14:38:03.261Z,7.50
2019-03-20T14:40:37.117Z,8.07
2019-03-20T14:43:10.667Z,7.07
2019-03-20T14:45:44.113Z,7.67
2019-03-20T14:48:17.533Z,5.83
2019-03-20T14:50:50.946Z,5.63
2019-03-20T14:53:24.307Z,8.70
2019-03-20T14:55:57.656Z,6.30
2019-03-20T14:58:31.060Z,6.77
2019-03-20T15:01:04.502Z,8.43
2019-03-20T15:03:38.038Z,8.37
2019-03-20T15:06:11.402Z,6.87
2019-03-20T15:08:44.867Z,7.97
2019-03-20T15:11:18.309Z,6.80
2019-03-20T15:13:51.654Z,6.97
2019-03-20T15:16:25.052Z,5.13
2019-03-20T15:18:58.394Z,7.80
2019-03-20T15:21:31.904Z,4.83
2019-03-20T15:24:05.327Z,5.67
2019-03-20T15:26:38.763Z,7.53
2019-03-20T15:29:12.170Z,6.33
2019-03-20T15:31:45.702Z,5.43
2019-03-20T15:34:19.172Z,5.07
2019-03-20T15:36:52.648Z,8.87
2019-03-20T15:39:26.042Z,7.73
2019-03-20T15:41:59.595Z,6.80
2019-03-20T15:44:33.047Z,8.23
2019-03-20T15:47:06.535Z,6.23
2019-03-20T15:49:39.894Z,5.27
2019-03-20T15:52:13.310Z,4.57
2019-03-20T15:54:46.675Z,5.27
2019-03-20T15:57:20.208Z,7.37
2019-03-20T15:59:53.618Z,6.27
2019-03-20T16:02:27.215Z,6.03
2019-03-20T16:05:00.605Z,5.87
2019-03-20T16:07:33.933Z,7.73
2019-03-20T16:10:13.490Z,8.33
2019-03-20T16:12:49.783Z,6.70
2019-03-20T16:15:23.897Z,7.07
2019-03-20T16:17:57.453Z,8.07
2019-03-20T16:20:30.837Z,7.13
2019-03-20T16:23:04.584Z,5.20
2019-03-20T16:25:38.013Z,5.43
2019-03-20T16:28:11.436Z,7.43
2019-03-20T16:30:44.915Z,7.40
2019-03-20T16:33:18.370Z,5.03
2019-03-20T16:35:51.710Z,6.57
2019-03-20T16:38:25.164Z,5.20
2019-03-20T16:40:58.502Z,6.60
2019-03-20T16:43:31.909Z,7.10
2019-03-20T16:46:05.275Z,5.80
2019-03-20T16:48:38.644Z,7.60
2019-03-20T16:51:12.007Z,9.00
2019-03-20T16:53:45.499Z,6.90
2019-03-20T16:56:18.852Z,6.27
2019-03-20T16:58:52.258Z,7.23
2019-03-20T17:01:25.704Z,7.30
2019-03-20T17:03:59.078Z,8.37
2019-03-20T17:06:32.481Z,6.13
2019-03-20T17:09:07.163Z,5.77
2019-03-20T17:11:40.623Z,5.77
2019-03-20T17:14:14.108Z,6.63
2019-03-20T17:16:47.459Z,8.10
2019-03-20T17:19:20.828Z,6.87
2019-03-20T17:21:54.233Z,7.63
2019-03-20T17:24:27.650Z,8.00
2019-03-20T17:27:01.057Z,8.27
2019-03-20T17:29:34.601Z,8.23
2019-03-20T17:32:08.040Z,9.40
2019-03-20T17:34:41.460Z,7.97
2019-03-20T17:37:14.827Z,7.07
2019-03-20T17:39:49.224Z,5.77
2019-03-20T17:42:22.928Z,6.10
2019-03-20T17:44:57.908Z,9.30
2019-03-20T17:47:31.252Z,6.27
2019-03-20T17:50:07.791Z,9.33
2019-03-20T17:52:41.179Z,10.73
2019-03-20T17:55:14.598Z,7.07
2019-03-20T17:57:48.452Z,9.77
2019-03-20T18:00:28.220Z,10.23
2019-03-20T18:03:01.683Z,11.70
2019-03-20T18:05:35.184Z,9.23
2019-03-20T18:08:09.295Z,8.50
2019-03-20T18:10:42.829Z,10.23
2019-03-20T18:13:16.344Z,9.20
2019-03-20T18:15:49.803Z,9.37
2019-03-20T18:18:23.264Z,12.30
2019-03-20T18:20:56.709Z,11.63
2019-03-20T18:23:30.223Z,10.40
2019-03-20T18:26:03.638Z,11.83
2019-03-20T18:28:36.995Z,13.93
2019-03-20T18:31:10.476Z,9.27
2019-03-20T18:33:44.214Z,16.10
2019-03-20T18:36:17.698Z,13.20
2019-03-20T18:38:51.104Z,21.87
2019-03-20T18:41:24.453Z,21.50
2019-03-20T18:43:57.828Z,22.80
2019-03-20T18:46:31.255Z,15.60
2019-03-20T18:49:04.779Z,15.90
2019-03-20T18:51:38.351Z,14.40
2019-03-20T18:54:11.878Z,15.63
2019-03-20T18:56:45.256Z,19.77
2019-03-20T18:59:18.717Z,18.70
2019-03-20T19:01:52.206Z,17.93
2019-03-20T19:04:26.133Z,18.03
2019-03-20T19:06:59.683Z,13.73
2019-03-20T19:09:33.293Z,12.43
2019-03-20T19:12:08.759Z,16.43
2019-03-20T19:14:42.106Z,13.07
2019-03-20T19:17:15.679Z,10.57
2019-03-20T19:19:49.160Z,10.23
2019-03-20T19:22:22.620Z,12.57
2019-03-20T19:24:56.103Z,10.57
2019-03-20T19:27:29.480Z,15.53
2019-03-20T19:30:03.224Z,11.93
2019-03-20T19:32:36.631Z,11.93
2019-03-20T19:35:11.526Z,12.77
2019-03-20T19:37:45.105Z,11.77
2019-03-20T19:40:20.248Z,11.93
2019-03-20T19:42:53.714Z,12.10
2019-03-20T19:45:27.140Z,11.20
2019-03-20T19:48:00.568Z,11.33
2019-03-20T19:50:34.068Z,9.43
2019-03-20T19:53:07.487Z,7.77
2019-03-20T19:55:40.946Z,9.87
2019-03-20T19:58:14.379Z,10.50
2019-03-20T20:00:47.800Z,10.93
2019-03-20T20:03:21.244Z,10.87
2019-03-20T20:05:54.649Z,10.83
2019-03-20T20:08:27.965Z,8.10
2019-03-20T20:11:01.403Z,13.00
2019-03-20T20:13:34.851Z,10.00
2019-03-20T20:16:08.301Z,8.87
2019-03-20T20:18:41.792Z,9.37
2019-03-20T20:21:15.347Z,11.07
2019-03-20T20:23:48.758Z,12.27
2019-03-20T20:26:22.271Z,13.27
2019-03-20T20:28:55.771Z,28.97
2019-03-20T20:31:29.246Z,19.77
2019-03-20T20:34:02.634Z,13.17
2019-03-20T20:36:36.060Z,16.33
2019-03-20T20:39:09.466Z,13.50
2019-03-20T20:41:42.914Z,12.10
2019-03-20T20:44:16.360Z,12.13
2019-03-20T20:46:49.814Z,10.73
2019-03-20T20:49:24.392Z,14.53
2019-03-20T20:51:58.028Z,13.03
2019-03-20T20:54:31.826Z,9.03
2019-03-20T20:57:05.515Z,11.63
2019-03-20T20:59:38.944Z,16.93
2019-03-20T21:02:12.344Z,13.90
2019-03-20T21:04:45.678Z,10.03
2019-03-20T21:07:19.041Z,10.00
2019-03-20T21:09:52.456Z,13.83
2019-03-20T21:12:27.382Z,13.97
2019-03-20T21:15:00.789Z,14.17
2019-03-20T21:17:37.353Z,10.00
2019-03-20T21:20:10.760Z,12.10
2019-03-20T21:22:50.312Z,12.70
2019-03-20T21:25:23.787Z,13.30
2019-03-20T21:28:20.033Z,16.43
2019-03-20T21:30:56.578Z,10.77
2019-03-20T21:33:49.702Z,11.47
2019-03-20T21:36:44.533Z,12.37
2019-03-20T21:39:17.968Z,9.53
2019-03-20T21:42:26.559Z,9.87
2019-03-20T21:45:32.009Z,15.27
2019-03-20T21:48:05.424Z,10.87
2019-03-20T21:50:53.904Z,15.53
2019-03-20T21:53:39.307Z,9.60
2019-03-20T21:56:21.460Z,11.60
2019-03-20T21:59:21.019Z,11.07
2019-03-20T22:02:12.640Z,11.10
2019-03-20T22:04:46.106Z,10.80
2019-03-20T22:07:19.421Z,9.67
2019-03-20T22:09:56.010Z,14.40
2019-03-20T22:12:49.034Z,15.17
2019-03-20T22:15:31.445Z,20.13
2019-03-20T22:18:36.949Z,14.77
2019-03-20T22:21:31.622Z,17.03
2019-03-20T22:24:17.259Z,19.90
2019-03-20T22:27:16.731Z,20.20
2019-03-20T22:29:50.071Z,13.30
2019-03-20T22:32:29.623Z,14.57
2019-03-20T22:35:30.503Z,16.27
2019-03-20T22:38:07.391Z,19.57
2019-03-20T22:41:03.786Z,18.00
2019-03-20T22:43:43.335Z,18.70
2019-03-20T22:46:39.339Z,16.97
2019-03-20T22:49:35.601Z,13.53
2019-03-20T22:52:33.502Z,18.43
2019-03-20T22:55:28.001Z,11.37
2019-03-20T22:58:16.309Z,12.83
2019-03-20T23:00:52.885Z,11.63
2019-03-20T23:03:32.283Z,13.80
2019-03-20T23:06:06.568Z,13.17
2019-03-20T23:08:40.018Z,12.40
2019-03-20T23:11:13.476Z,12.67
2019-03-20T23:13:46.839Z,11.33
2019-03-20T23:16:21.416Z,10.30
2019-03-20T23:18:54.924Z,12.57
2019-03-20T23:21:28.288Z,11.37
2019-03-20T23:24:01.667Z,11.53
2019-03-20T23:26:35.111Z,13.63
2019-03-20T23:29:08.547Z,9.43
2019-03-20T23:31:41.984Z,12.67
2019-03-20T23:34:15.382Z,11.13
2019-03-20T23:36:48.753Z,15.07
2019-03-20T23:39:22.134Z,10.17
2019-03-20T23:41:55.545Z,10.10
2019-03-20T23:44:28.903Z,11.00
2019-03-20T23:47:02.254Z,11.93
2019-03-20T23:49:35.691Z,17.57
2019-03-20T23:52:09.108Z,20.27
2019-03-20T23:54:44.207Z,21.67
2019-03-20T23:57:17.691Z,19.57
2019-03-20T23:59:51.057Z,20.33
